createdAt,value
2022-08-16T00:01:29.027Z,19.62
2022-08-16T00:04:05.107Z,19.54
2022-08-16T00:06:36.589Z,19.41
2022-08-16T00:09:10.775Z,19.53
2022-08-16T00:11:42.144Z,19.49
2022-08-16T00:14:15.142Z,19.44
2022-08-16T00:17:00.549Z,19.43
2022-08-16T00:19:41.283Z,19.34
2022-08-16T00:22:13.003Z,19.29
2022-08-16T00:24:44.720Z,19.41
2022-08-16T00:27:17.509Z,19.29
2022-08-16T00:29:46.819Z,19.16
2022-08-16T00:32:18.586Z,19.20
2022-08-16T00:34:52.622Z,19.16
2022-08-16T00:37:56.700Z,19.15
2022-08-16T00:40:34.108Z,19.09
2022-08-16T00:43:11.977Z,19.03
2022-08-16T00:45:59.985Z,19.03
2022-08-16T00:48:44.253Z,19.11
2022-08-16T00:51:17.492Z,19.09
2022-08-16T00:53:47.654Z,19.06
2022-08-16T00:56:57.150Z,19.01
2022-08-16T00:59:15.371Z,19.03
2022-08-16T01:01:47.309Z,18.90
2022-08-16T01:04:30.149Z,19.06
2022-08-16T01:07:03.120Z,19.04
2022-08-16T01:09:37.342Z,19.07
2022-08-16T01:12:10.613Z,19.10
2022-08-16T01:14:47.420Z,19.13
2022-08-16T01:17:19.462Z,19.08
2022-08-16T01:19:56.994Z,18.99
2022-08-16T01:22:48.254Z,18.96
2022-08-16T01:25:34.143Z,19.02
2022-08-16T01:28:09.922Z,19.01
2022-08-16T01:30:52.694Z,18.96
2022-08-16T01:33:23.802Z,18.95
2022-08-16T01:35:59.199Z,18.93
2022-08-16T01:38:32.490Z,18.84
2022-08-16T01:41:08.421Z,18.87
2022-08-16T01:43:41.033Z,18.76
2022-08-16T01:46:37.816Z,18.75
2022-08-16T01:49:14.986Z,18.82
2022-08-16T01:51:46.455Z,18.67
2022-08-16T01:54:30.987Z,18.59
2022-08-16T01:57:04.709Z,18.49
2022-08-16T01:59:35.281Z,18.39
2022-08-16T02:02:26.504Z,18.26
2022-08-16T02:04:55.840Z,18.23
2022-08-16T02:07:28.017Z,18.24
2022-08-16T02:10:01.995Z,18.29
2022-08-16T02:12:52.156Z,18.24
2022-08-16T02:15:40.387Z,18.29
2022-08-16T02:18:14.075Z,18.34
2022-08-16T02:20:53.999Z,18.35
2022-08-16T02:23:24.769Z,18.35
2022-08-16T02:25:54.855Z,18.38
2022-08-16T02:28:27.981Z,18.38
2022-08-16T02:31:04.427Z,18.44
2022-08-16T02:33:44.402Z,18.44
2022-08-16T02:36:47.736Z,18.37
2022-08-16T02:39:23.085Z,18.48
2022-08-16T02:41:54.832Z,18.56
2022-08-16T02:44:28.526Z,18.48
2022-08-16T02:46:59.847Z,18.49
2022-08-16T02:50:34.330Z,18.49
2022-08-16T02:52:24.663Z,18.51
2022-08-16T02:55:01.330Z,18.57
2022-08-16T02:57:33.055Z,18.58
2022-08-16T03:00:33.598Z,18.60
2022-08-16T03:03:00.981Z,18.49
2022-08-16T03:05:33.581Z,18.44
2022-08-16T03:08:04.570Z,18.38
2022-08-16T03:10:40.297Z,18.42
2022-08-16T03:13:12.178Z,18.42
2022-08-16T03:15:43.583Z,18.47
2022-08-16T03:18:18.712Z,18.47
2022-08-16T03:21:03.798Z,18.62
2022-08-16T03:23:35.784Z,18.67
2022-08-16T03:26:06.998Z,18.65
2022-08-16T03:28:37.285Z,18.67
2022-08-16T03:31:10.385Z,18.70
2022-08-16T03:33:44.715Z,18.74
2022-08-16T03:36:30.064Z,18.69
2022-08-16T03:39:04.708Z,18.79
2022-08-16T03:41:50.118Z,18.82
2022-08-16T03:44:43.956Z,18.86
2022-08-16T03:47:19.152Z,18.96
2022-08-16T03:49:52.436Z,18.99
2022-08-16T03:52:23.858Z,19.18
2022-08-16T03:55:02.025Z,19.13
2022-08-16T03:57:36.380Z,19.16
2022-08-16T04:00:35.190Z,19.18
2022-08-16T04:03:11.034Z,19.29
2022-08-16T04:05:46.935Z,19.52
2022-08-16T04:08:22.807Z,19.76
2022-08-16T04:11:00.726Z,20.00
2022-08-16T04:13:59.442Z,20.23
2022-08-16T04:16:26.782Z,20.51
2022-08-16T04:19:04.363Z,20.72
2022-08-16T04:21:45.821Z,20.91
2022-08-16T04:24:28.935Z,21.18
2022-08-16T04:27:01.324Z,21.26
2022-08-16T04:29:46.187Z,21.36
2022-08-16T04:32:19.689Z,21.38
2022-08-16T04:34:52.435Z,21.57
2022-08-16T04:37:21.793Z,21.71
2022-08-16T04:39:57.614Z,21.81
2022-08-16T04:42:29.902Z,21.93
2022-08-16T04:45:06.611Z,21.81
2022-08-16T04:47:36.858Z,21.88
2022-08-16T04:50:18.223Z,21.80
2022-08-16T04:53:00.904Z,21.81
2022-08-16T04:55:38.440Z,21.80
2022-08-16T04:58:44.378Z,21.87
2022-08-16T05:01:01.293Z,21.97
2022-08-16T05:03:33.656Z,22.05
2022-08-16T05:06:07.047Z,22.10
2022-08-16T05:08:39.555Z,22.17
2022-08-16T05:11:24.787Z,22.25
2022-08-16T05:14:07.200Z,22.29
2022-08-16T05:16:40.700Z,22.29
2022-08-16T05:19:16.426Z,22.37
2022-08-16T05:22:07.489Z,22.59
2022-08-16T05:24:48.978Z,22.56
2022-08-16T05:27:24.702Z,22.56
2022-08-16T05:30:01.256Z,22.57
2022-08-16T05:32:45.555Z,22.55
2022-08-16T05:35:17.308Z,22.50
2022-08-16T05:38:32.697Z,22.52
2022-08-16T05:41:04.063Z,22.50
2022-08-16T05:43:46.971Z,22.55
2022-08-16T05:46:43.542Z,22.58
2022-08-16T05:49:22.527Z,22.60
2022-08-16T05:51:59.514Z,22.64
2022-08-16T05:54:30.982Z,22.66
2022-08-16T05:57:03.043Z,22.69
2022-08-16T05:59:35.277Z,22.77
2022-08-16T06:02:07.739Z,22.84
2022-08-16T06:04:44.894Z,22.87
2022-08-16T06:07:24.749Z,22.93
2022-08-16T06:10:33.007Z,23.06
2022-08-16T06:13:06.499Z,23.07
2022-08-16T06:15:38.774Z,23.09
2022-08-16T06:18:11.906Z,23.10
2022-08-16T06:20:55.810Z,23.23
2022-08-16T06:23:27.521Z,23.17
2022-08-16T06:26:08.848Z,23.34
2022-08-16T06:28:43.489Z,23.43
2022-08-16T06:31:24.909Z,23.47
2022-08-16T06:33:57.079Z,23.52
2022-08-16T06:36:28.964Z,23.52
2022-08-16T06:39:14.426Z,23.61
2022-08-16T06:42:21.375Z,23.71
2022-08-16T06:45:10.909Z,23.89
2022-08-16T06:47:53.052Z,23.86
2022-08-16T06:50:29.513Z,23.89
2022-08-16T06:53:08.862Z,23.94
2022-08-16T06:55:46.818Z,24.01
2022-08-16T06:58:31.320Z,24.14
2022-08-16T07:01:15.007Z,24.17
2022-08-16T07:03:55.441Z,24.27
2022-08-16T07:06:31.086Z,24.41
2022-08-16T07:09:09.801Z,24.47
2022-08-16T07:11:48.026Z,24.60
2022-08-16T07:14:32.199Z,24.68
2022-08-16T07:17:03.410Z,24.76
2022-08-16T07:20:03.778Z,24.85
2022-08-16T07:22:39.717Z,24.93
2022-08-16T07:25:25.655Z,24.99
2022-08-16T07:27:55.112Z,25.03
2022-08-16T07:30:46.651Z,25.05
2022-08-16T07:33:52.629Z,25.11
2022-08-16T07:36:29.089Z,25.04
2022-08-16T07:39:01.060Z,25.06
2022-08-16T07:41:36.008Z,25.18
2022-08-16T07:44:16.586Z,25.10
2022-08-16T07:46:55.598Z,25.28
2022-08-16T07:49:26.826Z,25.23
2022-08-16T07:52:18.872Z,25.26
2022-08-16T07:54:53.116Z,25.16
2022-08-16T07:57:24.506Z,25.31
2022-08-16T07:59:57.142Z,25.35
2022-08-16T08:02:29.784Z,25.40
2022-08-16T08:05:00.463Z,25.43
2022-08-16T08:07:33.306Z,25.50
2022-08-16T08:10:10.903Z,25.54
2022-08-16T08:12:41.849Z,25.54
2022-08-16T08:15:15.581Z,25.53
2022-08-16T08:17:58.738Z,25.60
2022-08-16T08:20:59.517Z,25.69
2022-08-16T08:23:32.003Z,25.75
2022-08-16T08:26:01.673Z,25.81
2022-08-16T08:28:32.556Z,25.90
2022-08-16T08:31:10.841Z,25.91
2022-08-16T08:33:51.609Z,25.86
2022-08-16T08:36:32.946Z,25.92
2022-08-16T08:39:12.609Z,26.06
2022-08-16T08:41:46.459Z,26.19
2022-08-16T08:44:28.324Z,26.26
2022-08-16T08:47:10.908Z,26.27
2022-08-16T08:49:50.304Z,26.26
2022-08-16T08:52:34.498Z,26.27
2022-08-16T08:55:10.939Z,26.23
2022-08-16T08:57:42.475Z,26.37
2022-08-16T09:00:34.750Z,26.35
2022-08-16T09:03:20.272Z,26.22
2022-08-16T09:05:53.631Z,26.20
2022-08-16T09:08:25.734Z,26.20
2022-08-16T09:11:02.909Z,26.19
2022-08-16T09:13:35.736Z,26.22
2022-08-16T09:16:05.517Z,26.35
2022-08-16T09:18:36.733Z,26.30
2022-08-16T09:21:10.529Z,26.30
2022-08-16T09:23:43.766Z,26.37
2022-08-16T09:26:44.066Z,26.38
2022-08-16T09:29:16.935Z,26.43
2022-08-16T09:31:53.856Z,26.49
2022-08-16T09:34:24.988Z,26.55
2022-08-16T09:36:57.770Z,26.52
2022-08-16T09:39:41.527Z,26.57
2022-08-16T09:42:14.212Z,26.66
2022-08-16T09:45:09.746Z,26.72
2022-08-16T09:47:57.825Z,26.78
2022-08-16T09:50:36.704Z,26.77
2022-08-16T09:53:16.607Z,26.84
2022-08-16T09:55:49.341Z,26.75
2022-08-16T09:58:37.785Z,26.88
2022-08-16T10:01:11.550Z,26.93
2022-08-16T10:04:02.707Z,26.99
2022-08-16T10:06:33.374Z,27.03
2022-08-16T10:09:10.659Z,27.12
2022-08-16T10:11:56.984Z,27.18
2022-08-16T10:14:45.981Z,27.32
2022-08-16T10:17:16.758Z,27.37
2022-08-16T10:19:47.093Z,27.38
2022-08-16T10:22:23.138Z,27.42
2022-08-16T10:24:55.772Z,27.60
2022-08-16T10:27:45.593Z,27.76
2022-08-16T10:30:25.981Z,27.95
2022-08-16T10:32:57.858Z,27.96
2022-08-16T10:35:32.846Z,27.96
2022-08-16T10:38:27.483Z,27.88
2022-08-16T10:41:02.700Z,27.94
2022-08-16T10:43:32.223Z,27.92
2022-08-16T10:46:03.302Z,27.85
2022-08-16T10:48:53.259Z,27.77
2022-08-16T10:51:33.516Z,27.73
2022-08-16T10:54:05.001Z,27.85
2022-08-16T10:56:55.639Z,27.94
2022-08-16T10:59:46.887Z,27.95
2022-08-16T11:02:59.981Z,27.96
2022-08-16T11:05:11.321Z,28.17
2022-08-16T11:07:42.988Z,28.23
2022-08-16T11:11:07.057Z,28.19
2022-08-16T11:16:00.398Z,28.11
2022-08-16T11:18:48.017Z,28.18
2022-08-16T11:21:28.454Z,28.24
2022-08-16T11:23:59.617Z,28.21
2022-08-16T11:26:30.503Z,28.33
2022-08-16T11:29:17.772Z,28.44
2022-08-16T11:31:53.942Z,28.53
2022-08-16T11:34:23.869Z,28.42
2022-08-16T11:37:01.012Z,28.53
2022-08-16T11:39:34.167Z,28.70
2022-08-16T11:42:04.124Z,28.94
2022-08-16T11:44:57.002Z,29.05
2022-08-16T11:47:27.098Z,28.96
2022-08-16T11:49:56.506Z,28.89
2022-08-16T11:52:27.810Z,28.90
2022-08-16T11:55:00.288Z,29.00
2022-08-16T11:57:29.857Z,29.07
2022-08-16T12:00:04.102Z,29.10
2022-08-16T12:02:45.955Z,29.25
2022-08-16T12:05:18.590Z,29.31
2022-08-16T12:07:49.176Z,29.34
2022-08-16T12:10:21.265Z,29.50
2022-08-16T12:12:51.406Z,29.62
2022-08-16T12:15:24.755Z,29.75
2022-08-16T12:17:55.862Z,29.87
2022-08-16T12:20:30.053Z,29.94
2022-08-16T12:23:00.255Z,29.78
2022-08-16T12:25:32.517Z,29.83
2022-08-16T12:28:05.420Z,29.63
2022-08-16T12:30:41.233Z,29.47
2022-08-16T12:33:14.140Z,29.15
2022-08-16T12:35:44.583Z,28.88
2022-08-16T12:38:41.392Z,28.66
2022-08-16T12:41:04.520Z,28.66
2022-08-16T12:43:43.397Z,28.74
2022-08-16T12:46:16.563Z,28.83
2022-08-16T12:48:59.059Z,28.93
2022-08-16T12:57:36.456Z,29.17
2022-08-16T13:00:12.454Z,29.25
2022-08-16T13:02:56.222Z,29.46
2022-08-16T13:05:25.561Z,29.43
2022-08-16T13:07:58.140Z,29.39
2022-08-16T13:10:37.009Z,29.31
2022-08-16T13:13:09.722Z,29.21
2022-08-16T13:15:51.789Z,29.23
2022-08-16T13:18:33.948Z,29.14
2022-08-16T13:21:04.502Z,29.03
2022-08-16T13:23:35.674Z,28.98
2022-08-16T13:26:06.215Z,28.96
2022-08-16T13:28:39.518Z,28.90
2022-08-16T13:31:15.885Z,28.90
2022-08-16T13:33:46.366Z,29.09
2022-08-16T13:36:32.212Z,29.35
2022-08-16T13:39:06.819Z,29.56
2022-08-16T13:41:36.061Z,29.70
2022-08-16T13:44:09.290Z,29.72
2022-08-16T13:46:41.345Z,29.59
2022-08-16T13:49:11.553Z,29.40
2022-08-16T13:51:40.975Z,29.27
2022-08-16T13:54:10.399Z,29.07
2022-08-16T13:56:40.992Z,28.93
2022-08-16T13:59:20.493Z,28.97
2022-08-16T14:01:55.154Z,28.83
2022-08-16T14:04:27.913Z,28.78
2022-08-16T14:06:58.725Z,28.71
2022-08-16T14:09:29.591Z,28.63
2022-08-16T14:12:00.660Z,28.56
2022-08-16T14:14:33.369Z,28.66
2022-08-16T14:17:04.355Z,28.71
2022-08-16T14:19:33.667Z,28.79
2022-08-16T14:22:04.947Z,28.91
2022-08-16T14:24:47.097Z,29.02
2022-08-16T14:27:18.321Z,29.02
2022-08-16T14:29:52.274Z,29.01
2022-08-16T14:32:33.167Z,29.00
2022-08-16T14:35:07.060Z,28.93
2022-08-16T14:37:37.089Z,28.83
2022-08-16T14:40:07.411Z,28.58
2022-08-16T14:42:37.566Z,28.49
2022-08-16T14:45:10.500Z,28.38
2022-08-16T14:47:44.054Z,28.31
2022-08-16T14:50:16.078Z,28.33
2022-08-16T14:52:55.957Z,28.29
2022-08-16T14:55:27.988Z,28.29
2022-08-16T14:57:57.796Z,28.37
2022-08-16T15:00:33.167Z,28.52
2022-08-16T15:03:09.733Z,28.62
2022-08-16T15:05:41.284Z,28.57
2022-08-16T15:08:11.009Z,28.65
2022-08-16T15:10:42.785Z,28.48
2022-08-16T15:13:16.478Z,28.39
2022-08-16T15:15:56.305Z,28.28
2022-08-16T15:18:31.748Z,28.14
2022-08-16T15:21:02.084Z,28.00
2022-08-16T15:23:33.613Z,27.97
2022-08-16T15:26:08.325Z,27.95
2022-08-16T15:28:38.439Z,27.98
2022-08-16T15:31:14.874Z,27.97
2022-08-16T15:33:50.977Z,27.87
2022-08-16T15:36:26.070Z,27.77
2022-08-16T15:39:05.742Z,27.74
2022-08-16T15:42:01.455Z,27.70
2022-08-16T15:44:38.932Z,27.61
2022-08-16T15:47:26.336Z,27.47
2022-08-16T15:49:57.555Z,27.31
2022-08-16T15:52:30.031Z,27.28
2022-08-16T15:55:07.497Z,27.16
2022-08-16T15:57:42.736Z,27.03
2022-08-16T16:00:20.399Z,26.87
2022-08-16T16:03:01.166Z,26.79
2022-08-16T16:05:30.748Z,26.76
2022-08-16T16:08:11.097Z,26.74
2022-08-16T16:10:41.792Z,26.71
2022-08-16T16:13:12.471Z,26.64
2022-08-16T16:15:44.450Z,26.60
2022-08-16T16:18:16.314Z,26.55
2022-08-16T16:20:48.541Z,26.48
2022-08-16T16:23:23.545Z,26.40
2022-08-16T16:25:54.341Z,26.29
2022-08-16T16:29:05.297Z,26.16
2022-08-16T16:31:21.707Z,25.98
2022-08-16T16:33:57.599Z,25.95
2022-08-16T16:36:29.611Z,25.90
2022-08-16T16:39:00.263Z,25.82
2022-08-16T16:41:31.766Z,25.69
2022-08-16T16:44:03.117Z,25.63
2022-08-16T16:46:40.470Z,25.52
2022-08-16T16:49:18.245Z,25.50
2022-08-16T16:51:50.113Z,25.31
2022-08-16T16:54:27.409Z,25.47
2022-08-16T16:56:58.534Z,25.49
2022-08-16T16:59:28.079Z,25.46
2022-08-16T17:02:39.539Z,25.34
2022-08-16T17:04:51.298Z,25.31
2022-08-16T17:07:24.373Z,25.13
2022-08-16T17:09:54.069Z,25.04
2022-08-16T17:13:05.076Z,24.98
2022-08-16T17:15:14.970Z,24.91
2022-08-16T17:17:59.791Z,24.82
2022-08-16T17:20:38.000Z,24.68
2022-08-16T17:23:10.394Z,24.55
2022-08-16T17:25:39.959Z,24.52
2022-08-16T17:29:00.066Z,24.65
2022-08-16T17:31:00.515Z,24.46
2022-08-16T17:33:36.910Z,24.50
2022-08-16T17:36:12.834Z,24.42
2022-08-16T17:39:04.461Z,24.36
2022-08-16T17:41:33.737Z,24.34
2022-08-16T17:44:03.350Z,24.18
2022-08-16T17:46:51.263Z,24.17
2022-08-16T17:49:31.906Z,24.07
2022-08-16T17:52:03.279Z,24.06
2022-08-16T17:54:33.967Z,24.13
2022-08-16T17:57:03.581Z,24.00
2022-08-16T17:59:35.529Z,23.89
2022-08-16T18:02:42.793Z,23.89
2022-08-16T18:05:04.487Z,23.88
2022-08-16T18:07:37.288Z,23.81
2022-08-16T18:10:07.023Z,23.68
2022-08-16T18:12:50.839Z,23.71
2022-08-16T18:15:26.962Z,23.71
2022-08-16T18:17:55.869Z,23.77
2022-08-16T18:20:39.279Z,23.63
2022-08-16T18:23:15.076Z,23.59
2022-08-16T18:25:46.834Z,23.49
2022-08-16T18:28:17.095Z,23.46
2022-08-16T18:30:51.368Z,23.51
2022-08-16T18:33:23.670Z,23.49
2022-08-16T18:35:57.534Z,23.45
2022-08-16T18:38:30.212Z,23.43
2022-08-16T18:40:59.753Z,23.41
2022-08-16T18:44:23.442Z,23.38
2022-08-16T18:46:18.968Z,23.32
2022-08-16T18:48:48.130Z,23.32
2022-08-16T18:51:24.351Z,23.11
2022-08-16T18:53:56.707Z,23.27
2022-08-16T18:56:57.075Z,23.19
2022-08-16T18:59:15.532Z,23.18
2022-08-16T19:01:46.946Z,23.21
2022-08-16T19:04:47.996Z,23.21
2022-08-16T19:07:16.850Z,23.09
2022-08-16T19:09:49.000Z,23.06
2022-08-16T19:12:37.848Z,23.07
2022-08-16T19:15:12.146Z,22.98
2022-08-16T19:17:43.275Z,22.98
2022-08-16T19:20:14.563Z,22.83
2022-08-16T19:25:46.142Z,22.82
2022-08-16T19:28:49.281Z,22.77
2022-08-16T19:31:08.006Z,22.72
2022-08-16T19:33:38.672Z,22.64
2022-08-16T19:36:11.745Z,22.69
2022-08-16T19:38:57.770Z,22.61
2022-08-16T19:41:36.919Z,22.56
2022-08-16T19:44:07.954Z,22.47
2022-08-16T19:46:37.793Z,22.47
2022-08-16T19:49:07.729Z,22.42
2022-08-16T19:51:37.859Z,22.45
2022-08-16T19:54:07.343Z,22.28
2022-08-16T19:56:38.499Z,22.34
2022-08-16T19:59:40.000Z,22.28
2022-08-16T20:01:56.990Z,22.24
2022-08-16T20:04:26.503Z,22.19
2022-08-16T20:07:01.071Z,22.16
2022-08-16T20:09:30.432Z,22.13
2022-08-16T20:12:08.495Z,22.09
2022-08-16T20:14:37.810Z,22.06
2022-08-16T20:17:07.458Z,22.01
2022-08-16T20:19:40.279Z,21.98
2022-08-16T20:22:51.944Z,21.98
2022-08-16T20:25:19.143Z,21.86
2022-08-16T20:28:00.961Z,21.95
2022-08-16T20:30:31.434Z,21.93
2022-08-16T20:33:00.770Z,21.96
2022-08-16T20:35:30.942Z,21.84
2022-08-16T20:38:01.613Z,21.77
2022-08-16T20:40:35.397Z,21.71
2022-08-16T20:43:11.233Z,21.67
2022-08-16T20:45:41.775Z,21.52
2022-08-16T20:48:11.123Z,21.50
2022-08-16T20:50:43.101Z,21.35
2022-08-16T20:53:13.111Z,21.39
2022-08-16T20:55:44.327Z,21.42
2022-08-16T20:58:15.766Z,21.36
2022-08-16T21:00:45.015Z,21.37
2022-08-16T21:03:15.053Z,21.35
2022-08-16T21:05:46.234Z,21.34
2022-08-16T21:08:51.144Z,21.28
2022-08-16T21:11:07.552Z,21.24
2022-08-16T21:13:42.674Z,21.21
2022-08-16T21:16:15.381Z,21.04
2022-08-16T21:18:44.664Z,21.03
2022-08-16T21:21:13.898Z,21.00
2022-08-16T21:23:45.989Z,21.00
2022-08-16T21:26:15.181Z,20.95
2022-08-16T21:28:46.465Z,20.88
2022-08-16T21:31:18.019Z,20.78
2022-08-16T21:33:54.138Z,20.90
2022-08-16T21:36:35.665Z,20.84
2022-08-16T21:39:07.392Z,20.80
2022-08-16T21:41:37.921Z,20.77
2022-08-16T21:44:09.881Z,20.77
2022-08-16T21:46:39.128Z,20.70
2022-08-16T21:49:08.678Z,20.71
2022-08-16T21:51:39.859Z,20.62
2022-08-16T21:54:09.082Z,20.59
2022-08-16T21:56:38.254Z,20.55
2022-08-16T21:59:10.573Z,20.47
2022-08-16T22:01:42.598Z,20.52
2022-08-16T22:04:38.020Z,20.55
2022-08-16T22:07:03.041Z,20.50
2022-08-16T22:09:33.467Z,20.49
2022-08-16T22:12:04.084Z,20.46
2022-08-16T22:14:35.357Z,20.42
2022-08-16T22:17:04.622Z,20.31
2022-08-16T22:19:34.402Z,20.34
2022-08-16T22:22:03.899Z,20.34
2022-08-16T22:24:33.204Z,20.35
2022-08-16T22:27:02.556Z,20.30
2022-08-16T22:29:32.871Z,20.27
2022-08-16T22:32:06.061Z,20.22
2022-08-16T22:34:36.396Z,20.21
2022-08-16T22:37:05.938Z,20.13
2022-08-16T22:39:35.811Z,20.15
2022-08-16T22:42:11.280Z,20.13
2022-08-16T22:44:45.727Z,19.98
2022-08-16T22:47:17.910Z,20.05
2022-08-16T22:49:47.474Z,19.96
2022-08-16T22:52:25.007Z,19.93
2022-08-16T22:55:06.565Z,19.82
2022-08-16T22:57:35.766Z,19.92
2022-08-16T23:00:08.145Z,19.78
2022-08-16T23:02:56.437Z,19.80
2022-08-16T23:05:26.845Z,19.72
2022-08-16T23:07:57.101Z,19.72
2022-08-16T23:10:26.529Z,19.69
2022-08-16T23:12:59.668Z,19.72
2022-08-16T23:15:30.710Z,19.69
2022-08-16T23:18:03.518Z,19.67
2022-08-16T23:20:34.290Z,19.69
2022-08-16T23:23:19.335Z,19.67
2022-08-16T23:25:54.956Z,19.64
2022-08-16T23:28:26.898Z,19.46
2022-08-16T23:30:56.862Z,19.56
2022-08-16T23:33:29.368Z,19.55
2022-08-16T23:36:01.125Z,19.55
2022-08-16T23:38:37.609Z,19.54
2022-08-16T23:41:11.497Z,19.36
2022-08-16T23:43:43.788Z,19.51
2022-08-16T23:46:19.192Z,19.42
2022-08-16T23:49:56.773Z,19.47
2022-08-16T23:51:39.861Z,19.54
2022-08-16T23:54:11.098Z,19.38
2022-08-16T23:56:40.968Z,19.34
2022-08-16T23:59:10.272Z,19.20
